Airfield :
LOGIN :

Register | Disclaimer

   EN    FR    IT 

 










Legend :    VFR   Marginal VFR   IFR   Intensive IFR   Very Intensive IFR
Visi :
Ceiling :
>= 8 km
>= 3000ft
5 to 8 km
1000 to 3000 ft
1500m to 5 km
500 to 1000 ft
800 to 1500m
200 to 500 ft
< 800m
< 200 ft
Symbols :   Thunderstorms  Fog  Heavy snow  Heavy precipitations  Wind > 20 kt
SIGMETs :     Misc.  Thunderstorms  Icing  Turbulence  Mountain Waves  Volcanic Ashes






- Airport Elevation : 2026 ft
- IATA code : TOJ


LETO - Madrid Torrejon

CURRENT METAR :
  • 241700Z 14009KT 110V170 9999 FEW035 14/07 Q1029 NOSIG

EXPIRED METARs :
  • 241630Z 15011KT 9999 FEW035 14/07 Q1029 NOSIG
  • 241600Z 15011KT 120V180 9999 FEW035 14/07 Q1029 NOSIG
  • 241530Z 15011KT 120V180 9999 FEW040 14/07 Q1029 NOSIG
  • 241500Z 15011KT 110V200 9999 SCT040 15/07 Q1029 NOSIG
  • 241430Z 17010KT 9999 SCT035 14/08 Q1030 NOSIG

TAF TAF LETO
Valid from the 24 at 18:00 until the 25 at 18:00 UTC


241700Z 2418/2518 16010KT 9999 FEW035 TX15/2515Z TN04/2506Z
BECMG 2420/2421 05012KT



MET'MAP, your aeronautical weather chart ! - Copyright ORBIFLY December 2007 - Disclaimer

ORBIFLY MET'MAP TEAM :

Programming & Development : Alexandra Zaïnal
Concept & original design : Baudouin d'Aumeries
Assistance for programming : Marc-Olivier Méhu
Technical & hardware support : Manuel Goepfert

Contact : metmap@orbifly.com




SOURCES & CREDITS :

   NOAA